createdAt,value
2019-05-19T00:01:57.105Z,10.38
2019-05-19T00:04:31.051Z,16.42
2019-05-19T00:07:02.729Z,8.75
2019-05-19T00:09:34.700Z,11.15
2019-05-19T00:12:06.422Z,11.68
2019-05-19T00:14:38.200Z,10.05
2019-05-19T00:17:09.949Z,19.70
2019-05-19T00:19:41.666Z,7.40
2019-05-19T00:22:13.166Z,9.85
2019-05-19T00:27:15.374Z,21.97
2019-05-19T00:29:47.044Z,18.35
2019-05-19T00:32:18.711Z,16.75
2019-05-19T00:34:50.433Z,16.57
2019-05-19T00:37:22.061Z,19.37
2019-05-19T00:39:53.638Z,16.55
2019-05-19T00:42:25.501Z,18.17
2019-05-19T00:44:57.262Z,21.52
2019-05-19T00:47:29.095Z,15.60
2019-05-19T00:50:00.719Z,20.70
2019-05-19T00:52:32.527Z,12.70
2019-05-19T00:55:04.433Z,19.30
2019-05-19T00:57:36.622Z,19.50
2019-05-19T01:00:09.059Z,20.97
2019-05-19T01:02:41.096Z,15.85
2019-05-19T01:05:12.867Z,14.73
2019-05-19T01:07:44.507Z,15.30
2019-05-19T01:10:16.372Z,20.88
2019-05-19T01:12:48.118Z,20.20
2019-05-19T01:15:20.667Z,21.45
2019-05-19T01:17:52.257Z,18.82
2019-05-19T01:20:23.917Z,15.32
2019-05-19T01:22:55.681Z,19.07
2019-05-19T01:25:27.253Z,17.85
2019-05-19T01:27:59.171Z,20.32
2019-05-19T01:30:30.889Z,23.52
2019-05-19T01:33:02.496Z,24.18
2019-05-19T01:35:34.546Z,25.45
2019-05-19T01:38:06.260Z,35.52
2019-05-19T01:40:37.871Z,21.23
2019-05-19T01:43:09.532Z,17.90
2019-05-19T01:45:41.282Z,25.32
2019-05-19T01:48:12.948Z,20.52
2019-05-19T01:50:44.525Z,19.42
2019-05-19T01:53:16.046Z,22.13
2019-05-19T01:55:47.701Z,24.72
2019-05-19T01:58:19.388Z,29.52
2019-05-19T02:00:51.007Z,28.67
2019-05-19T02:03:22.681Z,26.55
2019-05-19T02:05:54.369Z,21.85
2019-05-19T02:08:26.088Z,20.75
2019-05-19T02:10:58.003Z,18.67
2019-05-19T02:13:29.593Z,18.60
2019-05-19T02:16:01.377Z,18.75
2019-05-19T02:18:33.224Z,22.55
2019-05-19T02:21:04.773Z,17.40
2019-05-19T02:23:38.261Z,23.15
2019-05-19T02:26:10.175Z,12.28
2019-05-19T02:28:41.870Z,16.60
2019-05-19T02:31:13.599Z,15.98
2019-05-19T02:33:45.714Z,12.95
2019-05-19T02:36:17.597Z,13.72
2019-05-19T02:38:50.458Z,17.80
2019-05-19T02:41:24.751Z,20.80
2019-05-19T02:43:58.734Z,14.00
2019-05-19T02:46:31.756Z,28.35
2019-05-19T02:49:04.980Z,14.47
2019-05-19T02:51:38.274Z,9.35
2019-05-19T02:54:11.888Z,14.85
2019-05-19T02:56:44.154Z,15.50
2019-05-19T02:59:16.800Z,16.90
2019-05-19T03:02:06.256Z,20.92
2019-05-19T03:04:38.068Z,17.12
2019-05-19T03:07:09.612Z,8.03
2019-05-19T03:09:41.266Z,10.08
2019-05-19T03:12:13.002Z,9.00
2019-05-19T03:14:44.801Z,6.92
2019-05-19T03:17:18.550Z,6.62
2019-05-19T03:19:50.036Z,7.87
2019-05-19T03:24:51.810Z,6.53
2019-05-19T03:27:23.578Z,13.32
2019-05-19T03:29:58.248Z,5.50
2019-05-19T03:32:43.912Z,8.38
2019-05-19T03:35:15.660Z,4.97
2019-05-19T03:37:47.324Z,6.10
2019-05-19T03:40:21.975Z,3.85
2019-05-19T03:42:53.880Z,7.25
2019-05-19T03:45:25.452Z,6.47
2019-05-19T03:47:57.599Z,9.20
2019-05-19T03:50:30.175Z,7.37
2019-05-19T03:53:01.840Z,7.10
2019-05-19T03:55:33.495Z,17.50
2019-05-19T03:58:05.138Z,4.17
2019-05-19T04:00:36.698Z,6.92
2019-05-19T04:03:08.363Z,6.53
2019-05-19T04:05:40.550Z,8.75
2019-05-19T04:08:12.072Z,11.45
2019-05-19T04:13:14.111Z,3.05
2019-05-19T04:15:45.636Z,3.27
2019-05-19T04:18:17.362Z,4.53
2019-05-19T04:20:49.153Z,4.10
2019-05-19T04:23:20.774Z,6.85
2019-05-19T04:25:52.361Z,9.10
2019-05-19T04:28:24.074Z,12.73
2019-05-19T04:30:55.752Z,9.55
2019-05-19T04:33:27.389Z,9.08
2019-05-19T04:35:59.161Z,2.80
2019-05-19T04:38:30.883Z,5.25
2019-05-19T04:41:02.406Z,3.85
2019-05-19T04:46:04.303Z,6.85
2019-05-19T04:48:35.992Z,6.62
2019-05-19T04:51:08.017Z,4.03
2019-05-19T04:53:42.117Z,7.70
2019-05-19T04:56:13.944Z,3.62
2019-05-19T04:58:45.733Z,6.83
2019-05-19T05:01:17.389Z,2.42
2019-05-19T05:03:48.902Z,4.30
2019-05-19T05:06:20.899Z,3.92
2019-05-19T05:08:52.742Z,5.12
2019-05-19T05:11:24.390Z,2.17
2019-05-19T05:13:56.053Z,2.15
2019-05-19T05:16:27.837Z,4.62
2019-05-19T05:18:59.357Z,3.40
2019-05-19T05:21:31.012Z,2.20
2019-05-19T05:24:02.661Z,3.55
2019-05-19T05:26:34.325Z,9.05
2019-05-19T05:29:05.975Z,6.65
2019-05-19T05:31:37.769Z,7.50
2019-05-19T05:34:09.481Z,4.97
2019-05-19T05:36:41.248Z,3.95
2019-05-19T05:39:13.094Z,7.55
2019-05-19T05:41:44.714Z,2.75
2019-05-19T05:44:16.261Z,3.15
2019-05-19T05:46:47.834Z,2.58
2019-05-19T05:49:19.536Z,6.42
2019-05-19T05:51:52.008Z,3.83
2019-05-19T05:54:23.740Z,2.83
2019-05-19T05:56:55.570Z,3.90
2019-05-19T05:59:27.179Z,1.87
2019-05-19T06:01:58.732Z,5.95
2019-05-19T06:04:30.389Z,3.45
2019-05-19T06:07:02.152Z,2.15
2019-05-19T06:09:33.898Z,3.83
2019-05-19T06:12:05.706Z,1.17
2019-05-19T06:14:37.448Z,3.62
2019-05-19T06:17:09.280Z,3.62
2019-05-19T06:19:40.938Z,7.47
2019-05-19T06:22:12.790Z,3.80
2019-05-19T06:24:44.616Z,7.87
2019-05-19T06:27:16.380Z,2.47
2019-05-19T06:29:48.179Z,3.80
2019-05-19T06:32:26.948Z,3.20
2019-05-19T06:34:58.654Z,9.40
2019-05-19T06:37:30.492Z,3.52
2019-05-19T06:40:02.076Z,1.47
2019-05-19T06:42:33.652Z,2.02
2019-05-19T06:45:05.654Z,3.70
2019-05-19T06:47:37.574Z,1.75
2019-05-19T06:50:10.626Z,1.60
2019-05-19T06:52:42.427Z,5.62
2019-05-19T06:55:14.650Z,5.87
2019-05-19T06:57:46.275Z,7.35
2019-05-19T07:00:18.788Z,3.75
2019-05-19T07:02:50.376Z,5.60
2019-05-19T07:05:21.911Z,8.10
2019-05-19T07:07:53.689Z,3.72
2019-05-19T07:10:25.540Z,1.85
2019-05-19T07:12:57.186Z,4.42
2019-05-19T07:15:29.042Z,4.78
2019-05-19T07:18:00.701Z,6.87
2019-05-19T07:20:32.468Z,2.52
2019-05-19T07:23:04.151Z,2.80
2019-05-19T07:25:35.997Z,3.40
2019-05-19T07:28:07.679Z,3.52
2019-05-19T07:30:39.308Z,3.62
2019-05-19T07:33:11.882Z,3.50
2019-05-19T07:35:44.886Z,2.47
2019-05-19T07:38:16.465Z,2.47
2019-05-19T07:40:48.170Z,15.23
2019-05-19T07:43:19.799Z,1.35
2019-05-19T07:45:51.643Z,6.22
2019-05-19T07:48:23.071Z,2.72
2019-05-19T07:53:25.053Z,3.55
2019-05-19T07:55:56.646Z,5.60
2019-05-19T07:58:28.444Z,4.28
2019-05-19T08:01:00.083Z,2.50
2019-05-19T08:03:34.017Z,5.47
2019-05-19T08:06:06.689Z,3.80
2019-05-19T08:08:38.389Z,3.92
2019-05-19T08:11:09.979Z,5.25
2019-05-19T08:13:41.855Z,2.62
2019-05-19T08:16:13.554Z,5.67
2019-05-19T08:18:47.339Z,3.40
2019-05-19T08:21:18.943Z,3.17
2019-05-19T08:23:59.972Z,3.15
2019-05-19T08:26:23.888Z,3.98
2019-05-19T08:28:55.495Z,4.55
2019-05-19T08:31:27.538Z,4.83
2019-05-19T08:34:00.027Z,2.27
2019-05-19T08:36:31.661Z,3.77
2019-05-19T08:39:05.247Z,6.20
2019-05-19T08:41:37.114Z,4.37
2019-05-19T08:44:08.894Z,3.10
2019-05-19T08:46:40.639Z,3.33
2019-05-19T08:49:12.106Z,1.62
2019-05-19T08:54:18.332Z,6.78
2019-05-19T08:56:47.444Z,4.67
2019-05-19T08:59:19.047Z,4.33
2019-05-19T09:01:50.667Z,3.30
2019-05-19T09:04:22.469Z,9.28
2019-05-19T09:06:54.185Z,5.65
2019-05-19T09:09:25.896Z,6.22
2019-05-19T09:11:57.597Z,3.62
2019-05-19T09:14:29.533Z,6.20
2019-05-19T09:17:01.240Z,10.40
2019-05-19T09:19:33.204Z,4.22
2019-05-19T09:22:04.998Z,9.65
2019-05-19T09:24:37.345Z,5.00
2019-05-19T09:27:09.219Z,22.85
2019-05-19T09:29:41.748Z,2.55
2019-05-19T09:32:13.425Z,5.15
2019-05-19T09:34:45.314Z,5.08
2019-05-19T09:37:17.026Z,7.92
2019-05-19T09:39:48.629Z,11.03
2019-05-19T09:42:20.439Z,11.20
2019-05-19T09:44:52.232Z,2.02
2019-05-19T09:47:23.863Z,2.85
2019-05-19T09:49:55.679Z,3.77
2019-05-19T09:52:27.282Z,6.08
2019-05-19T09:54:59.040Z,3.25
2019-05-19T09:57:30.772Z,3.67
2019-05-19T10:00:02.567Z,2.47
2019-05-19T10:02:34.308Z,5.28
2019-05-19T10:05:06.812Z,4.30
2019-05-19T10:07:38.642Z,2.95
2019-05-19T10:10:18.183Z,4.10
2019-05-19T10:12:49.980Z,4.10
2019-05-19T10:15:21.719Z,3.08
2019-05-19T10:17:53.502Z,2.62
2019-05-19T10:20:25.238Z,5.12
2019-05-19T10:22:56.963Z,8.48
2019-05-19T10:25:28.724Z,4.40
2019-05-19T10:28:02.527Z,4.72
2019-05-19T10:30:34.086Z,4.15
2019-05-19T10:33:08.520Z,3.47
2019-05-19T10:35:40.266Z,2.77
2019-05-19T10:38:12.039Z,11.88
2019-05-19T10:40:43.843Z,8.88
2019-05-19T10:43:15.643Z,7.12
2019-05-19T10:45:59.793Z,5.10
2019-05-19T10:48:31.652Z,5.20
2019-05-19T10:51:03.231Z,4.22
2019-05-19T10:53:34.770Z,4.28
2019-05-19T10:56:06.339Z,4.83
2019-05-19T10:58:38.001Z,2.77
2019-05-19T11:01:09.743Z,7.45
2019-05-19T11:03:41.408Z,6.10
2019-05-19T11:06:13.206Z,6.28
2019-05-19T11:08:44.923Z,5.67
2019-05-19T11:11:16.740Z,2.87
2019-05-19T11:13:48.632Z,3.83
2019-05-19T11:16:20.306Z,4.00
2019-05-19T11:18:52.047Z,5.67
2019-05-19T11:21:23.734Z,6.78
2019-05-19T11:23:55.562Z,6.80
2019-05-19T11:26:27.401Z,4.70
2019-05-19T11:29:00.474Z,14.40
2019-05-19T11:31:32.088Z,9.60
2019-05-19T11:34:03.815Z,9.68
2019-05-19T11:36:35.573Z,6.05
2019-05-19T11:39:09.220Z,6.90
2019-05-19T11:41:40.921Z,6.67
2019-05-19T11:44:12.872Z,5.22
2019-05-19T11:46:44.458Z,2.60
2019-05-19T11:49:16.312Z,6.30
2019-05-19T11:51:48.567Z,5.87
2019-05-19T11:54:20.325Z,5.42
2019-05-19T11:56:52.011Z,5.80
2019-05-19T11:59:23.536Z,5.75
2019-05-19T12:01:55.234Z,2.65
2019-05-19T12:04:26.975Z,5.75
2019-05-19T12:06:58.852Z,7.15
2019-05-19T12:09:30.369Z,2.40
2019-05-19T12:12:02.157Z,4.85
2019-05-19T12:14:33.787Z,1.60
2019-05-19T12:17:05.756Z,5.33
2019-05-19T12:19:37.658Z,3.05
2019-05-19T12:22:09.286Z,3.98
2019-05-19T12:24:40.918Z,2.45
2019-05-19T12:27:12.492Z,6.37
2019-05-19T12:29:44.224Z,2.70
2019-05-19T12:32:16.142Z,10.72
2019-05-19T12:34:48.098Z,3.92
2019-05-19T12:37:19.783Z,6.05
2019-05-19T12:39:51.434Z,2.80
2019-05-19T12:42:23.201Z,7.53
2019-05-19T12:44:54.759Z,12.85
2019-05-19T12:47:26.449Z,4.42
2019-05-19T12:49:58.145Z,5.62
2019-05-19T12:52:30.221Z,3.30
2019-05-19T12:55:01.864Z,3.47
2019-05-19T12:57:33.666Z,2.55
2019-05-19T13:00:05.557Z,7.12
2019-05-19T13:02:38.205Z,3.87
2019-05-19T13:05:10.211Z,4.60
2019-05-19T13:07:41.870Z,5.37
2019-05-19T13:10:13.805Z,3.83
2019-05-19T13:12:45.475Z,3.02
2019-05-19T13:15:17.416Z,4.85
2019-05-19T13:17:49.204Z,4.87
2019-05-19T13:20:21.461Z,3.42
2019-05-19T13:22:53.233Z,6.47
2019-05-19T13:25:24.979Z,5.85
2019-05-19T13:27:56.563Z,6.08
2019-05-19T13:30:28.064Z,6.42
2019-05-19T13:32:59.923Z,8.48
2019-05-19T13:35:31.687Z,7.90
2019-05-19T13:38:03.355Z,8.43
2019-05-19T13:40:34.914Z,5.67
2019-05-19T13:43:06.673Z,9.08
2019-05-19T13:45:38.346Z,21.00
2019-05-19T13:48:10.005Z,18.23
2019-05-19T13:50:41.641Z,6.40
2019-05-19T13:53:13.302Z,7.15
2019-05-19T13:55:44.953Z,7.72
2019-05-19T13:58:16.618Z,12.95
2019-05-19T14:00:48.358Z,6.22
2019-05-19T14:03:19.977Z,8.23
2019-05-19T14:05:51.795Z,5.87
2019-05-19T14:08:23.470Z,11.00
2019-05-19T14:10:55.168Z,7.35
2019-05-19T14:13:26.851Z,2.22
2019-05-19T14:15:58.707Z,7.65
2019-05-19T14:18:30.279Z,7.10
2019-05-19T14:21:02.155Z,6.90
2019-05-19T14:23:33.904Z,8.20
2019-05-19T14:26:05.803Z,8.35
2019-05-19T14:28:39.409Z,6.40
2019-05-19T14:31:11.221Z,3.98
2019-05-19T14:33:43.067Z,8.05
2019-05-19T14:36:15.707Z,8.05
2019-05-19T14:39:05.756Z,4.35
2019-05-19T14:41:40.746Z,4.60
2019-05-19T14:44:12.544Z,5.33
2019-05-19T14:46:44.273Z,3.83
2019-05-19T14:49:18.579Z,4.00
2019-05-19T14:51:50.353Z,4.60
2019-05-19T14:54:22.047Z,5.90
2019-05-19T14:56:53.760Z,7.20
2019-05-19T14:59:25.437Z,4.05
2019-05-19T15:01:56.986Z,5.87
2019-05-19T15:04:28.662Z,5.58
2019-05-19T15:07:00.441Z,6.65
2019-05-19T15:09:32.169Z,6.10
2019-05-19T15:12:03.943Z,5.20
2019-05-19T15:14:35.616Z,6.97
2019-05-19T15:17:07.000Z,3.50
2019-05-19T15:19:38.702Z,5.03
2019-05-19T15:22:10.329Z,2.90
2019-05-19T15:24:42.028Z,3.65
2019-05-19T15:27:13.520Z,7.08
2019-05-19T15:29:45.114Z,3.47
2019-05-19T15:32:16.865Z,4.03
2019-05-19T15:34:48.424Z,3.17
2019-05-19T15:37:20.063Z,6.70
2019-05-19T15:39:51.711Z,3.05
2019-05-19T15:42:23.469Z,6.15
2019-05-19T15:44:55.453Z,9.30
2019-05-19T15:47:27.734Z,2.62
2019-05-19T15:49:59.879Z,4.05
2019-05-19T15:52:31.563Z,3.65
2019-05-19T15:55:03.310Z,2.65
2019-05-19T15:57:35.373Z,4.72
2019-05-19T16:00:08.123Z,1.87
2019-05-19T16:02:40.119Z,5.00
2019-05-19T16:05:11.988Z,2.30
2019-05-19T16:07:43.563Z,3.30
2019-05-19T16:10:15.905Z,7.03
2019-05-19T16:12:47.500Z,6.47
2019-05-19T16:15:19.616Z,9.10
2019-05-19T16:17:51.156Z,8.58
2019-05-19T16:20:22.719Z,4.12
2019-05-19T16:22:54.289Z,3.65
2019-05-19T16:25:25.882Z,5.05
2019-05-19T16:27:57.808Z,1.85
2019-05-19T16:30:29.479Z,4.37
2019-05-19T16:33:01.385Z,2.45
2019-05-19T16:35:33.177Z,5.47
2019-05-19T16:38:04.972Z,8.35
2019-05-19T16:40:36.592Z,5.87
2019-05-19T16:43:08.246Z,4.75
2019-05-19T16:45:40.020Z,6.03
2019-05-19T16:48:11.626Z,3.02
2019-05-19T16:50:43.221Z,11.48
2019-05-19T16:53:14.957Z,5.00
2019-05-19T16:55:46.525Z,5.80
2019-05-19T16:58:21.494Z,14.47
2019-05-19T17:00:51.516Z,15.50
2019-05-19T17:03:23.651Z,19.92
2019-05-19T17:05:55.785Z,12.73
2019-05-19T17:08:27.768Z,8.05
2019-05-19T17:10:59.442Z,12.93
2019-05-19T17:13:31.161Z,11.57
2019-05-19T17:16:02.876Z,4.50
2019-05-19T17:18:34.496Z,8.08
2019-05-19T17:21:07.035Z,5.12
2019-05-19T17:23:38.931Z,10.10
2019-05-19T17:26:10.595Z,5.78
2019-05-19T17:28:42.356Z,9.28
2019-05-19T17:31:14.040Z,10.18
2019-05-19T17:33:45.848Z,6.67
2019-05-19T17:36:18.111Z,10.75
2019-05-19T17:38:49.774Z,6.87
2019-05-19T17:41:21.471Z,9.65
2019-05-19T17:43:53.096Z,14.90
2019-05-19T17:46:25.687Z,13.35
2019-05-19T17:48:57.342Z,10.80
2019-05-19T17:51:29.604Z,9.33
2019-05-19T17:54:01.314Z,8.55
2019-05-19T17:56:34.032Z,7.15
2019-05-19T17:59:16.140Z,10.58
2019-05-19T18:01:39.389Z,7.92
2019-05-19T18:04:11.177Z,15.70
2019-05-19T18:06:42.805Z,8.60
2019-05-19T18:09:14.267Z,9.93
2019-05-19T18:11:45.807Z,10.32
2019-05-19T18:14:17.412Z,11.10
2019-05-19T18:16:49.240Z,10.15
2019-05-19T18:19:21.034Z,5.83
2019-05-19T18:21:55.944Z,6.45
2019-05-19T18:24:30.571Z,7.47
2019-05-19T18:27:02.087Z,9.35
2019-05-19T18:29:33.831Z,9.45
2019-05-19T18:32:06.106Z,10.20
2019-05-19T18:34:38.507Z,9.55
2019-05-19T18:37:13.497Z,7.97
2019-05-19T18:39:45.515Z,7.67
2019-05-19T18:42:20.107Z,13.60
2019-05-19T18:44:50.663Z,4.62
2019-05-19T18:47:22.635Z,10.28
2019-05-19T18:49:54.331Z,8.45
2019-05-19T18:52:26.023Z,12.23
2019-05-19T18:54:57.565Z,4.95
2019-05-19T18:57:30.745Z,8.38
2019-05-19T19:00:02.329Z,9.00
2019-05-19T19:02:33.872Z,7.80
2019-05-19T19:05:06.069Z,8.75
2019-05-19T19:07:52.378Z,9.35
2019-05-19T19:10:23.759Z,10.48
2019-05-19T19:15:26.000Z,12.25
2019-05-19T19:17:58.272Z,12.70
2019-05-19T19:20:29.962Z,10.08
2019-05-19T19:23:01.601Z,10.70
2019-05-19T19:25:34.946Z,15.40
2019-05-19T19:28:06.707Z,7.35
2019-05-19T19:30:38.396Z,11.03
2019-05-19T19:33:10.186Z,16.90
2019-05-19T19:35:41.822Z,10.38
2019-05-19T19:38:13.452Z,9.20
2019-05-19T19:40:46.765Z,13.93
2019-05-19T19:43:18.320Z,10.82
2019-05-19T19:45:49.974Z,8.70
2019-05-19T19:48:21.601Z,6.12
2019-05-19T19:50:53.241Z,13.43
2019-05-19T19:53:25.266Z,13.30
2019-05-19T19:55:56.982Z,9.45
2019-05-19T19:58:28.889Z,16.95
2019-05-19T20:01:00.523Z,11.28
2019-05-19T20:03:32.077Z,13.45
2019-05-19T20:06:03.703Z,8.58
2019-05-19T20:08:35.466Z,7.40
2019-05-19T20:11:07.307Z,12.37
2019-05-19T20:13:38.886Z,10.32
2019-05-19T20:16:10.706Z,8.08
2019-05-19T20:18:42.457Z,6.75
2019-05-19T20:21:13.976Z,7.90
2019-05-19T20:23:45.906Z,13.20
2019-05-19T20:26:17.567Z,6.05
2019-05-19T20:28:49.113Z,5.87
2019-05-19T20:31:20.812Z,10.58
2019-05-19T20:33:52.440Z,14.28
2019-05-19T20:36:24.306Z,12.55
2019-05-19T20:38:55.979Z,8.10
2019-05-19T20:41:27.770Z,8.18
2019-05-19T20:43:59.470Z,9.65
2019-05-19T20:46:31.251Z,8.98
2019-05-19T20:49:02.980Z,7.33
2019-05-19T20:51:34.696Z,10.35
2019-05-19T20:54:06.507Z,6.92
2019-05-19T20:56:38.202Z,9.95
2019-05-19T20:59:09.810Z,3.45
2019-05-19T21:01:44.902Z,7.28
2019-05-19T21:04:15.468Z,8.20
2019-05-19T21:09:17.255Z,4.42
2019-05-19T21:11:51.245Z,12.35
2019-05-19T21:14:23.222Z,4.95
2019-05-19T21:16:54.902Z,9.45
2019-05-19T21:19:26.439Z,7.75
2019-05-19T21:21:58.211Z,6.72
2019-05-19T21:24:29.751Z,4.08
2019-05-19T21:27:01.310Z,6.95
2019-05-19T21:29:32.884Z,13.68
2019-05-19T21:32:04.631Z,5.03
2019-05-19T21:34:36.548Z,6.65
2019-05-19T21:37:08.163Z,9.78
2019-05-19T21:39:39.882Z,9.00
2019-05-19T21:42:11.583Z,5.95
2019-05-19T21:44:43.197Z,10.65
2019-05-19T21:47:14.975Z,14.13
2019-05-19T21:49:46.618Z,7.85
2019-05-19T21:52:18.520Z,16.35
2019-05-19T21:54:50.173Z,7.35
2019-05-19T21:57:21.769Z,8.10
2019-05-19T21:59:53.744Z,9.38
2019-05-19T22:02:25.579Z,9.93
2019-05-19T22:04:57.171Z,4.50
2019-05-19T22:07:50.865Z,8.78
2019-05-19T22:10:23.533Z,7.70
2019-05-19T22:12:55.232Z,5.25
2019-05-19T22:15:26.956Z,5.50
2019-05-19T22:17:58.585Z,6.40
2019-05-19T22:20:30.174Z,11.53
2019-05-19T22:23:01.687Z,12.07
2019-05-19T22:25:33.476Z,8.85
2019-05-19T22:28:05.205Z,8.38
